createdAt,value
2022-11-18T00:03:44.996Z,3934.1
2022-11-18T00:09:21.651Z,3933.9
2022-11-18T00:14:57.880Z,3932.6
2022-11-18T00:20:35.788Z,3933.2
2022-11-18T00:26:11.254Z,3931.6
2022-11-18T00:32:08.978Z,3933.2
2022-11-18T00:37:48.008Z,3934.1
2022-11-18T00:43:24.198Z,3932.1
2022-11-18T00:49:24.353Z,3929.2
2022-11-18T00:54:57.551Z,3934.4
2022-11-18T01:00:36.216Z,3933.2
2022-11-18T01:06:12.783Z,3931.4
2022-11-18T01:11:48.572Z,3933.6
2022-11-18T01:17:30.086Z,3932.9
2022-11-18T01:23:11.902Z,3930.9
2022-11-18T01:28:51.144Z,3928.5
2022-11-18T01:34:30.588Z,3930.7
2022-11-18T01:40:07.713Z,3935.1
2022-11-18T01:46:07.134Z,3926.5
2022-11-18T01:51:40.055Z,3932.7
2022-11-18T01:57:18.110Z,3932.7
2022-11-18T02:02:54.052Z,3927.9
2022-11-18T02:08:29.808Z,3931.4
2022-11-18T02:14:05.131Z,3928
2022-11-18T02:19:40.356Z,3929.7
2022-11-18T02:25:14.992Z,3928.7
2022-11-18T02:30:52.146Z,3927.4
2022-11-18T02:36:27.271Z,3929.6
2022-11-18T02:42:03.339Z,3928.5
2022-11-18T02:48:00.723Z,3925.4
2022-11-18T02:53:42.569Z,3928.2
2022-11-18T02:59:30.706Z,3927
2022-11-18T03:05:06.321Z,3928.2
2022-11-18T03:10:44.339Z,3925
2022-11-18T03:16:19.641Z,3924.2
2022-11-18T03:21:55.578Z,3926.9
2022-11-18T03:27:31.946Z,3928.5
2022-11-18T03:33:11.542Z,3927.2
2022-11-18T03:38:47.582Z,3927
2022-11-18T03:44:23.255Z,3926.7
2022-11-18T03:50:02.390Z,3926.4
2022-11-18T03:55:44.065Z,3927.2
2022-11-18T04:02:11.517Z,3925.5
2022-11-18T04:08:00.287Z,3924.7
2022-11-18T04:14:31.210Z,3927.9
2022-11-18T04:20:09.902Z,3926.2
2022-11-18T04:25:50.292Z,3927.7
2022-11-18T04:31:26.499Z,3923.5
2022-11-18T04:37:01.943Z,3924
2022-11-18T04:42:38.397Z,3924.5
2022-11-18T04:48:41.822Z,3921.3
2022-11-18T04:54:15.178Z,3922.3
2022-11-18T04:59:54.345Z,3924.7
2022-11-18T05:05:36.248Z,3923.2
2022-11-18T05:11:13.577Z,3923.2
2022-11-18T05:16:49.057Z,3921.8
2022-11-18T05:22:25.613Z,3924.9
2022-11-18T05:28:03.302Z,3925.9
2022-11-18T05:33:38.841Z,3923.4
2022-11-18T05:39:14.731Z,3922.3
2022-11-18T05:44:59.959Z,3925
2022-11-18T05:50:35.687Z,3922.3
2022-11-18T05:56:12.372Z,3924.4
2022-11-18T06:01:48.435Z,3924.4
2022-11-18T06:07:25.216Z,3924.7
2022-11-18T06:13:01.284Z,3920.3
2022-11-18T06:18:36.371Z,3922.2
2022-11-18T06:24:11.701Z,3923.2
2022-11-18T06:29:48.630Z,3922.9
2022-11-18T06:35:26.175Z,3922.2
2022-11-18T06:41:03.667Z,3921.5
2022-11-18T06:47:01.494Z,3919.8
2022-11-18T06:52:35.903Z,3922.7
2022-11-18T06:58:13.520Z,3920.3
2022-11-18T07:03:51.144Z,3919.2
2022-11-18T07:09:29.067Z,3920.7
2022-11-18T07:15:05.457Z,3921.8
2022-11-18T07:20:42.022Z,3920.3
2022-11-18T07:26:17.722Z,3920.3
2022-11-18T07:31:53.395Z,3914.3
2022-11-18T07:37:30.221Z,3914.1
2022-11-18T07:43:06.553Z,3916.8
2022-11-18T07:49:03.964Z,3918.8
2022-11-18T07:54:37.724Z,3927.2
2022-11-18T08:00:14.045Z,3940.1
2022-11-18T08:06:11.564Z,3938.9
2022-11-18T08:11:56.781Z,3954.2
2022-11-18T08:18:14.774Z,3962.4
2022-11-18T08:23:53.732Z,3951.2
2022-11-18T08:29:31.945Z,3947
2022-11-18T08:35:13.726Z,3947.6
2022-11-18T08:40:57.604Z,3944.5
2022-11-18T08:46:33.391Z,3947.8
2022-11-18T08:52:13.458Z,3944.3
2022-11-18T08:57:48.908Z,3936.3
2022-11-18T09:03:25.208Z,3939.8
2022-11-18T09:09:21.863Z,3953.2
2022-11-18T09:15:21.859Z,3947.8
2022-11-18T09:20:59.342Z,3959.2
2022-11-18T09:26:35.591Z,3957
2022-11-18T09:32:11.995Z,3968.9
2022-11-18T09:38:10.448Z,3968.7
2022-11-18T09:44:00.434Z,3963.2
2022-11-18T09:49:36.288Z,3975.1
2022-11-18T09:55:14.207Z,3968.4
2022-11-18T10:00:50.295Z,3970.9
2022-11-18T10:06:28.729Z,3963.1
2022-11-18T10:12:13.375Z,3957.7
2022-11-18T10:17:49.607Z,3959
2022-11-18T10:23:24.510Z,3963
2022-11-18T10:29:01.796Z,3965.9
2022-11-18T10:35:02.690Z,3972.4
2022-11-18T10:40:45.291Z,3973.9
2022-11-18T10:46:46.082Z,3955
2022-11-18T10:52:24.624Z,3950.2
2022-11-18T10:59:31.585Z,3960
2022-11-18T11:05:16.617Z,3971.1
2022-11-18T11:10:57.668Z,3971.8
2022-11-18T11:16:35.495Z,3977.8
2022-11-18T11:22:11.019Z,3978.3
2022-11-18T11:28:18.843Z,3999.4
2022-11-18T11:33:54.205Z,3997.4
2022-11-18T11:39:30.457Z,3997.9
2022-11-18T11:45:26.860Z,4088
2022-11-18T11:51:06.425Z,4006.3
2022-11-18T11:56:41.830Z,4013.5
2022-11-18T12:02:17.277Z,4017.7
2022-11-18T12:07:57.785Z,4022.8
2022-11-18T12:13:36.025Z,4033.7
2022-11-18T12:19:13.698Z,4016.5
2022-11-18T12:25:09.874Z,4021.3
2022-11-18T12:30:47.890Z,4013.5
2022-11-18T12:36:23.742Z,4030.4
2022-11-18T12:41:59.363Z,4017.8
2022-11-18T12:47:34.461Z,4031.9
2022-11-18T12:53:10.295Z,4022
2022-11-18T12:58:46.411Z,4045.8
2022-11-18T13:04:21.623Z,4029.5
2022-11-18T13:09:57.106Z,4024.4
2022-11-18T13:15:34.379Z,4022.2
2022-11-18T13:21:14.375Z,4023.9
2022-11-18T13:27:01.468Z,4023.5
2022-11-18T13:32:38.335Z,4024.4
2022-11-18T13:38:15.899Z,4030.2
2022-11-18T13:44:00.600Z,4035.4
2022-11-18T13:49:38.149Z,4032.4
2022-11-18T13:55:13.758Z,4041.4
2022-11-18T14:00:49.558Z,4032.2
2022-11-18T14:06:33.358Z,4033.9
2022-11-18T14:12:08.698Z,4031.2
2022-11-18T14:17:43.687Z,4030.7
2022-11-18T14:23:18.660Z,4024
2022-11-18T14:28:55.330Z,4026
2022-11-18T14:34:31.214Z,4025.5
2022-11-18T14:40:06.453Z,4032.7
2022-11-18T14:45:47.129Z,4029.9
2022-11-18T14:51:56.540Z,4033.9
2022-11-18T14:57:31.701Z,4030.2
2022-11-18T15:03:13.903Z,4045.8
2022-11-18T15:08:53.790Z,4038.9
2022-11-18T15:14:29.944Z,4035.2
2022-11-18T15:20:08.060Z,4034.9
2022-11-18T15:25:46.175Z,4035.1
2022-11-18T15:31:23.931Z,4037.3
2022-11-18T15:36:59.763Z,4037.1
2022-11-18T15:42:53.321Z,4035.2
2022-11-18T15:48:28.431Z,4029.2
2022-11-18T15:54:07.562Z,4029.2
2022-11-18T15:59:43.165Z,4029.7
2022-11-18T16:05:18.483Z,4024.5
2022-11-18T16:10:53.784Z,4023
2022-11-18T16:16:42.066Z,4025
2022-11-18T16:22:17.285Z,4020.2
2022-11-18T16:27:52.152Z,4019.8
2022-11-18T16:33:27.746Z,4021.7
2022-11-18T16:39:03.097Z,4020.5
2022-11-18T16:44:38.447Z,4017.8
2022-11-18T16:50:13.581Z,4018.5
2022-11-18T16:55:48.301Z,4018.2
2022-11-18T17:01:36.096Z,4016.5
2022-11-18T17:07:13.971Z,4019.3
2022-11-18T17:12:48.993Z,4012.3
2022-11-18T17:18:24.425Z,4014.3
2022-11-18T17:23:59.635Z,4013.8
2022-11-18T17:29:35.006Z,4012.8
2022-11-18T17:35:10.556Z,4013
2022-11-18T17:40:46.289Z,4009.6
2022-11-18T17:46:27.612Z,4007.6
2022-11-18T17:52:07.097Z,4005.3
2022-11-18T17:57:44.911Z,4008.1
2022-11-18T18:03:19.866Z,4011.1
2022-11-18T18:08:54.937Z,4008.9
2022-11-18T18:14:29.969Z,4007.3
2022-11-18T18:20:06.724Z,4009.1
2022-11-18T18:25:43.091Z,4011.8
2022-11-18T18:31:18.013Z,4010.3
2022-11-18T18:36:52.968Z,4006.8
2022-11-18T18:42:29.601Z,4008.9
2022-11-18T18:48:08.603Z,4006.8
2022-11-18T18:53:44.308Z,4007.6
2022-11-18T18:59:34.881Z,4003.6
2022-11-18T19:05:09.865Z,4004.6
2022-11-18T19:10:48.450Z,4004.3
2022-11-18T19:16:29.289Z,4002.2
2022-11-18T19:22:04.332Z,4002.4
2022-11-18T19:27:40.307Z,4003.4
2022-11-18T19:33:18.457Z,3998.9
2022-11-18T19:38:54.237Z,3999.4
2022-11-18T19:44:30.214Z,4001.2
2022-11-18T19:50:15.076Z,4002.2
2022-11-18T19:55:50.491Z,3998.4
2022-11-18T20:01:27.583Z,3999.2
2022-11-18T20:07:25.241Z,3997.9
2022-11-18T20:13:12.806Z,3997.9
2022-11-18T20:18:50.689Z,3994.9
2022-11-18T20:24:27.366Z,3997.9
2022-11-18T20:30:04.654Z,3994.4
2022-11-18T20:35:40.426Z,3992.4
2022-11-18T20:41:17.540Z,3995.7
2022-11-18T20:46:58.425Z,3992.4
2022-11-18T20:52:34.512Z,3994.4
2022-11-18T20:58:11.639Z,3990.9
2022-11-18T21:03:56.814Z,3990
2022-11-18T21:09:49.529Z,3989.9
2022-11-18T21:15:26.468Z,3988.8
2022-11-18T21:21:13.323Z,3991.4
2022-11-18T21:26:53.270Z,3989.3
2022-11-18T21:32:36.964Z,3987.8
2022-11-18T21:38:29.665Z,3988.7
2022-11-18T21:44:15.588Z,3989.3
2022-11-18T21:49:50.912Z,3987.2
2022-11-18T21:55:27.910Z,3986.2
2022-11-18T22:01:06.901Z,3986
2022-11-18T22:06:42.783Z,3986.2
2022-11-18T22:12:18.391Z,3984.5
2022-11-18T22:18:01.215Z,3984.2
2022-11-18T22:23:59.560Z,3986
2022-11-18T22:29:35.630Z,3982.6
2022-11-18T22:35:14.700Z,3983.3
2022-11-18T22:40:55.831Z,3981.8
2022-11-18T22:46:31.498Z,3979.6
2022-11-18T22:52:06.435Z,3983.7
2022-11-18T22:57:41.686Z,3982.1
2022-11-18T23:03:16.945Z,3982.3
2022-11-18T23:08:51.780Z,3983.3
2022-11-18T23:14:27.657Z,3979.3
2022-11-18T23:20:02.504Z,3979.6
2022-11-18T23:25:37.623Z,3975.8
2022-11-18T23:31:13.100Z,3978.3
2022-11-18T23:36:57.010Z,3979.1
2022-11-18T23:42:32.191Z,3980.1
2022-11-18T23:48:13.328Z,3980.3
2022-11-18T23:53:49.354Z,3977.1
2022-11-18T23:59:24.467Z,3978
